sensor_id;sensor_type;location;lat;lon;timestamp;temperature;humidity
11764;DHT22;5939;56.522;14.950;2022-08-19T00:01:22;22.70;99.90
11764;DHT22;5939;56.522;14.950;2022-08-19T00:03:48;22.70;99.90
11764;DHT22;5939;56.522;14.950;2022-08-19T00:06:14;22.70;99.90
11764;DHT22;5939;56.522;14.950;2022-08-19T00:08:40;22.70;99.90
11764;DHT22;5939;56.522;14.950;2022-08-19T00:11:06;22.70;99.90
11764;DHT22;5939;56.522;14.950;2022-08-19T00:13:33;22.60;99.90
11764;DHT22;5939;56.522;14.950;2022-08-19T00:15:59;22.60;99.90
11764;DHT22;5939;56.522;14.950;2022-08-19T00:18:26;22.60;99.90
11764;DHT22;5939;56.522;14.950;2022-08-19T00:20:52;22.60;99.90
11764;DHT22;5939;56.522;14.950;2022-08-19T00:23:18;22.60;99.90
11764;DHT22;5939;56.522;14.950;2022-08-19T00:25:44;22.60;99.90
11764;DHT22;5939;56.522;14.950;2022-08-19T00:28:10;22.60;99.90
11764;DHT22;5939;56.522;14.950;2022-08-19T00:30:36;22.50;99.90
11764;DHT22;5939;56.522;14.950;2022-08-19T00:33:02;22.50;99.90
11764;DHT22;5939;56.522;14.950;2022-08-19T00:35:28;22.50;99.90
11764;DHT22;5939;56.522;14.950;2022-08-19T00:37:54;22.50;99.90
11764;DHT22;5939;56.522;14.950;2022-08-19T00:40:20;22.50;99.90
11764;DHT22;5939;56.522;14.950;2022-08-19T00:42:46;22.50;99.90
11764;DHT22;5939;56.522;14.950;2022-08-19T00:45:15;22.50;99.90
11764;DHT22;5939;56.522;14.950;2022-08-19T00:47:43;22.50;99.90
11764;DHT22;5939;56.522;14.950;2022-08-19T00:50:10;22.50;99.90
11764;DHT22;5939;56.522;14.950;2022-08-19T00:52:42;22.50;99.90
11764;DHT22;5939;56.522;14.950;2022-08-19T00:55:14;22.50;99.90
11764;DHT22;5939;56.522;14.950;2022-08-19T00:57:44;22.50;99.90
11764;DHT22;5939;56.522;14.950;2022-08-19T01:00:14;22.40;99.90
11764;DHT22;5939;56.522;14.950;2022-08-19T01:02:41;22.40;99.90
11764;DHT22;5939;56.522;14.950;2022-08-19T01:05:11;22.40;99.90
11764;DHT22;5939;56.522;14.950;2022-08-19T01:07:38;22.40;99.90
11764;DHT22;5939;56.522;14.950;2022-08-19T01:10:08;22.40;99.90
11764;DHT22;5939;56.522;14.950;2022-08-19T01:12:34;22.40;99.90
11764;DHT22;5939;56.522;14.950;2022-08-19T01:15:00;22.40;99.90
11764;DHT22;5939;56.522;14.950;2022-08-19T01:17:26;22.40;99.90
11764;DHT22;5939;56.522;14.950;2022-08-19T01:19:52;22.30;99.90
11764;DHT22;5939;56.522;14.950;2022-08-19T01:22:31;22.30;99.90
11764;DHT22;5939;56.522;14.950;2022-08-19T01:25:00;22.30;99.90
11764;DHT22;5939;56.522;14.950;2022-08-19T01:27:26;22.30;99.90
11764;DHT22;5939;56.522;14.950;2022-08-19T01:29:52;22.30;99.90
11764;DHT22;5939;56.522;14.950;2022-08-19T01:32:18;22.30;99.90
11764;DHT22;5939;56.522;14.950;2022-08-19T01:34:45;22.30;99.90
11764;DHT22;5939;56.522;14.950;2022-08-19T01:37:13;22.30;99.90
11764;DHT22;5939;56.522;14.950;2022-08-19T01:39:40;22.30;99.90
11764;DHT22;5939;56.522;14.950;2022-08-19T01:42:07;22.20;99.90
11764;DHT22;5939;56.522;14.950;2022-08-19T01:44:37;22.20;99.90
11764;DHT22;5939;56.522;14.950;2022-08-19T01:47:03;22.20;99.90
11764;DHT22;5939;56.522;14.950;2022-08-19T01:49:29;22.20;99.90
11764;DHT22;5939;56.522;14.950;2022-08-19T01:51:55;22.20;99.90
11764;DHT22;5939;56.522;14.950;2022-08-19T01:54:23;22.20;99.90
11764;DHT22;5939;56.522;14.950;2022-08-19T01:56:50;22.10;99.90
11764;DHT22;5939;56.522;14.950;2022-08-19T01:59:19;22.10;99.90
11764;DHT22;5939;56.522;14.950;2022-08-19T02:01:46;22.10;99.90
11764;DHT22;5939;56.522;14.950;2022-08-19T02:04:11;22.10;99.90
11764;DHT22;5939;56.522;14.950;2022-08-19T02:06:38;22.10;99.90
11764;DHT22;5939;56.522;14.950;2022-08-19T02:09:05;22.10;99.90
11764;DHT22;5939;56.522;14.950;2022-08-19T02:11:33;22.10;99.90
11764;DHT22;5939;56.522;14.950;2022-08-19T02:14:01;22.10;99.90
11764;DHT22;5939;56.522;14.950;2022-08-19T02:16:29;22.00;99.90
11764;DHT22;5939;56.522;14.950;2022-08-19T02:18:56;22.10;99.90
11764;DHT22;5939;56.522;14.950;2022-08-19T02:21:23;22.00;99.90
11764;DHT22;5939;56.522;14.950;2022-08-19T02:23:49;22.00;99.90
11764;DHT22;5939;56.522;14.950;2022-08-19T02:26:16;22.00;99.90
11764;DHT22;5939;56.522;14.950;2022-08-19T02:28:42;22.10;99.90
11764;DHT22;5939;56.522;14.950;2022-08-19T02:31:14;22.00;99.90
11764;DHT22;5939;56.522;14.950;2022-08-19T02:33:41;22.00;99.90
11764;DHT22;5939;56.522;14.950;2022-08-19T02:36:08;22.00;99.90
11764;DHT22;5939;56.522;14.950;2022-08-19T02:38:34;22.00;99.90
11764;DHT22;5939;56.522;14.950;2022-08-19T02:41:04;21.90;99.90
11764;DHT22;5939;56.522;14.950;2022-08-19T02:43:31;22.00;99.90
11764;DHT22;5939;56.522;14.950;2022-08-19T02:45:57;21.90;99.90
11764;DHT22;5939;56.522;14.950;2022-08-19T02:48:25;21.90;99.90
11764;DHT22;5939;56.522;14.950;2022-08-19T02:50:52;21.90;99.90
11764;DHT22;5939;56.522;14.950;2022-08-19T02:53:25;21.90;99.90
11764;DHT22;5939;56.522;14.950;2022-08-19T02:55:52;21.90;99.90
11764;DHT22;5939;56.522;14.950;2022-08-19T02:58:19;21.90;99.90
11764;DHT22;5939;56.522;14.950;2022-08-19T03:00:54;21.90;99.90
11764;DHT22;5939;56.522;14.950;2022-08-19T03:03:21;21.90;99.90
11764;DHT22;5939;56.522;14.950;2022-08-19T03:05:47;21.90;99.90
11764;DHT22;5939;56.522;14.950;2022-08-19T03:08:13;21.90;99.90
11764;DHT22;5939;56.522;14.950;2022-08-19T03:10:45;21.90;99.90
11764;DHT22;5939;56.522;14.950;2022-08-19T03:13:16;21.80;99.90
11764;DHT22;5939;56.522;14.950;2022-08-19T03:15:46;21.90;99.90
11764;DHT22;5939;56.522;14.950;2022-08-19T03:18:13;21.80;99.90
11764;DHT22;5939;56.522;14.950;2022-08-19T03:20:47;21.80;99.90
11764;DHT22;5939;56.522;14.950;2022-08-19T03:23:14;21.80;99.90
11764;DHT22;5939;56.522;14.950;2022-08-19T03:25:42;21.80;99.90
11764;DHT22;5939;56.522;14.950;2022-08-19T03:28:13;21.80;99.90
11764;DHT22;5939;56.522;14.950;2022-08-19T03:30:40;21.80;99.90
11764;DHT22;5939;56.522;14.950;2022-08-19T03:33:07;21.80;99.90
11764;DHT22;5939;56.522;14.950;2022-08-19T03:35:33;21.80;99.90
11764;DHT22;5939;56.522;14.950;2022-08-19T03:38:03;21.80;99.90
11764;DHT22;5939;56.522;14.950;2022-08-19T03:40:28;21.80;99.90
11764;DHT22;5939;56.522;14.950;2022-08-19T03:42:56;21.80;99.90
11764;DHT22;5939;56.522;14.950;2022-08-19T03:45:22;21.70;99.90
11764;DHT22;5939;56.522;14.950;2022-08-19T03:47:48;21.70;99.90
11764;DHT22;5939;56.522;14.950;2022-08-19T03:50:14;21.70;99.90
11764;DHT22;5939;56.522;14.950;2022-08-19T03:52:39;21.70;99.90
11764;DHT22;5939;56.522;14.950;2022-08-19T03:55:06;21.70;99.90
11764;DHT22;5939;56.522;14.950;2022-08-19T03:57:33;21.70;99.90
11764;DHT22;5939;56.522;14.950;2022-08-19T04:00:00;21.70;99.90
11764;DHT22;5939;56.522;14.950;2022-08-19T04:02:26;21.70;99.90
11764;DHT22;5939;56.522;14.950;2022-08-19T04:04:53;21.70;99.90
11764;DHT22;5939;56.522;14.950;2022-08-19T04:07:19;21.70;99.90
11764;DHT22;5939;56.522;14.950;2022-08-19T04:09:47;21.70;99.90
11764;DHT22;5939;56.522;14.950;2022-08-19T04:12:13;21.70;99.90
11764;DHT22;5939;56.522;14.950;2022-08-19T04:14:40;21.60;99.90
11764;DHT22;5939;56.522;14.950;2022-08-19T04:17:06;21.60;99.90
11764;DHT22;5939;56.522;14.950;2022-08-19T04:19:34;21.60;99.90
11764;DHT22;5939;56.522;14.950;2022-08-19T04:22:00;21.60;99.90
11764;DHT22;5939;56.522;14.950;2022-08-19T04:24:25;21.60;99.90
11764;DHT22;5939;56.522;14.950;2022-08-19T04:26:51;21.60;99.90
11764;DHT22;5939;56.522;14.950;2022-08-19T04:29:20;21.60;99.90
11764;DHT22;5939;56.522;14.950;2022-08-19T04:31:47;21.60;99.90
11764;DHT22;5939;56.522;14.950;2022-08-19T04:34:16;21.60;99.90
11764;DHT22;5939;56.522;14.950;2022-08-19T04:36:43;21.60;99.90
11764;DHT22;5939;56.522;14.950;2022-08-19T04:39:18;21.60;99.90
11764;DHT22;5939;56.522;14.950;2022-08-19T04:41:44;21.50;99.90
11764;DHT22;5939;56.522;14.950;2022-08-19T04:44:31;21.50;99.90
11764;DHT22;5939;56.522;14.950;2022-08-19T04:46:57;21.50;99.90
11764;DHT22;5939;56.522;14.950;2022-08-19T04:49:23;21.50;99.90
11764;DHT22;5939;56.522;14.950;2022-08-19T04:51:50;21.50;99.90
11764;DHT22;5939;56.522;14.950;2022-08-19T04:54:21;21.50;99.90
11764;DHT22;5939;56.522;14.950;2022-08-19T04:56:49;21.50;99.90
11764;DHT22;5939;56.522;14.950;2022-08-19T04:59:16;21.50;99.90
11764;DHT22;5939;56.522;14.950;2022-08-19T05:01:42;21.50;99.90
11764;DHT22;5939;56.522;14.950;2022-08-19T05:04:08;21.50;99.90
11764;DHT22;5939;56.522;14.950;2022-08-19T05:06:34;21.50;99.90
11764;DHT22;5939;56.522;14.950;2022-08-19T05:09:02;21.50;99.90
11764;DHT22;5939;56.522;14.950;2022-08-19T05:11:31;21.50;99.90
11764;DHT22;5939;56.522;14.950;2022-08-19T05:13:57;21.50;99.90
11764;DHT22;5939;56.522;14.950;2022-08-19T05:16:24;21.50;99.90
11764;DHT22;5939;56.522;14.950;2022-08-19T05:18:51;21.50;99.90
11764;DHT22;5939;56.522;14.950;2022-08-19T05:21:35;21.50;99.90
11764;DHT22;5939;56.522;14.950;2022-08-19T05:24:21;21.50;99.90
11764;DHT22;5939;56.522;14.950;2022-08-19T05:26:49;21.50;99.90
11764;DHT22;5939;56.522;14.950;2022-08-19T05:29:18;21.50;99.90
11764;DHT22;5939;56.522;14.950;2022-08-19T05:31:45;21.50;99.90
11764;DHT22;5939;56.522;14.950;2022-08-19T05:34:11;21.50;99.90
11764;DHT22;5939;56.522;14.950;2022-08-19T05:36:39;21.50;99.90
11764;DHT22;5939;56.522;14.950;2022-08-19T05:39:11;21.60;99.90
11764;DHT22;5939;56.522;14.950;2022-08-19T05:41:42;21.60;99.90
11764;DHT22;5939;56.522;14.950;2022-08-19T05:44:08;21.60;99.90
11764;DHT22;5939;56.522;14.950;2022-08-19T05:46:36;21.60;99.90
11764;DHT22;5939;56.522;14.950;2022-08-19T05:49:04;21.60;99.90
11764;DHT22;5939;56.522;14.950;2022-08-19T05:51:31;21.60;99.90
11764;DHT22;5939;56.522;14.950;2022-08-19T05:53:57;21.70;99.90
11764;DHT22;5939;56.522;14.950;2022-08-19T05:56:23;21.70;99.90
11764;DHT22;5939;56.522;14.950;2022-08-19T05:58:49;21.70;99.90
11764;DHT22;5939;56.522;14.950;2022-08-19T06:01:17;21.80;99.90
11764;DHT22;5939;56.522;14.950;2022-08-19T06:03:44;21.80;99.90
11764;DHT22;5939;56.522;14.950;2022-08-19T06:06:11;21.80;99.90
11764;DHT22;5939;56.522;14.950;2022-08-19T06:08:38;21.80;99.90
11764;DHT22;5939;56.522;14.950;2022-08-19T06:13:43;21.90;99.90
11764;DHT22;5939;56.522;14.950;2022-08-19T06:16:12;22.00;99.90
11764;DHT22;5939;56.522;14.950;2022-08-19T06:18:38;22.00;99.90
11764;DHT22;5939;56.522;14.950;2022-08-19T06:21:04;22.10;99.90
11764;DHT22;5939;56.522;14.950;2022-08-19T06:23:30;22.20;99.90
11764;DHT22;5939;56.522;14.950;2022-08-19T06:25:56;22.20;99.90
11764;DHT22;5939;56.522;14.950;2022-08-19T06:28:22;22.30;99.90
11764;DHT22;5939;56.522;14.950;2022-08-19T06:30:49;22.40;99.90
11764;DHT22;5939;56.522;14.950;2022-08-19T06:33:15;22.50;99.90
11764;DHT22;5939;56.522;14.950;2022-08-19T06:35:41;22.50;99.90
11764;DHT22;5939;56.522;14.950;2022-08-19T06:38:07;22.60;99.90
11764;DHT22;5939;56.522;14.950;2022-08-19T06:40:35;22.70;99.90
11764;DHT22;5939;56.522;14.950;2022-08-19T06:43:01;22.70;99.90
11764;DHT22;5939;56.522;14.950;2022-08-19T06:45:28;22.80;99.90
11764;DHT22;5939;56.522;14.950;2022-08-19T06:47:54;22.90;99.90
11764;DHT22;5939;56.522;14.950;2022-08-19T06:50:22;22.90;99.90
11764;DHT22;5939;56.522;14.950;2022-08-19T06:52:47;23.00;99.90
11764;DHT22;5939;56.522;14.950;2022-08-19T06:55:14;23.10;99.90
11764;DHT22;5939;56.522;14.950;2022-08-19T06:57:41;23.20;99.90
11764;DHT22;5939;56.522;14.950;2022-08-19T07:00:08;23.20;99.90
11764;DHT22;5939;56.522;14.950;2022-08-19T07:02:41;23.40;99.90
11764;DHT22;5939;56.522;14.950;2022-08-19T07:05:07;23.40;99.90
11764;DHT22;5939;56.522;14.950;2022-08-19T07:07:33;23.50;99.90
11764;DHT22;5939;56.522;14.950;2022-08-19T07:10:00;23.60;99.90
11764;DHT22;5939;56.522;14.950;2022-08-19T07:12:28;23.70;99.90
11764;DHT22;5939;56.522;14.950;2022-08-19T07:14:54;23.80;99.90
11764;DHT22;5939;56.522;14.950;2022-08-19T07:17:19;23.90;99.90
11764;DHT22;5939;56.522;14.950;2022-08-19T07:19:45;23.90;99.90
11764;DHT22;5939;56.522;14.950;2022-08-19T07:22:11;24.00;99.90
11764;DHT22;5939;56.522;14.950;2022-08-19T07:24:37;24.10;99.90
11764;DHT22;5939;56.522;14.950;2022-08-19T07:27:04;24.20;99.90
11764;DHT22;5939;56.522;14.950;2022-08-19T07:29:32;24.30;99.90
11764;DHT22;5939;56.522;14.950;2022-08-19T07:32:00;24.40;99.90
11764;DHT22;5939;56.522;14.950;2022-08-19T07:34:28;24.50;99.90
11764;DHT22;5939;56.522;14.950;2022-08-19T07:36:55;24.60;99.90
11764;DHT22;5939;56.522;14.950;2022-08-19T07:39:27;24.70;99.90
11764;DHT22;5939;56.522;14.950;2022-08-19T07:41:54;24.80;99.90
11764;DHT22;5939;56.522;14.950;2022-08-19T07:44:20;24.80;99.90
11764;DHT22;5939;56.522;14.950;2022-08-19T07:46:51;24.90;99.90
11764;DHT22;5939;56.522;14.950;2022-08-19T07:49:18;25.00;99.90
11764;DHT22;5939;56.522;14.950;2022-08-19T07:51:58;25.10;99.90
11764;DHT22;5939;56.522;14.950;2022-08-19T07:54:29;25.20;99.90
11764;DHT22;5939;56.522;14.950;2022-08-19T07:56:55;25.30;99.90
11764;DHT22;5939;56.522;14.950;2022-08-19T07:59:23;25.40;99.90
11764;DHT22;5939;56.522;14.950;2022-08-19T08:01:49;25.40;99.90
11764;DHT22;5939;56.522;14.950;2022-08-19T08:04:15;25.50;99.90
11764;DHT22;5939;56.522;14.950;2022-08-19T08:06:59;25.60;99.90
11764;DHT22;5939;56.522;14.950;2022-08-19T08:09:44;25.70;99.90
11764;DHT22;5939;56.522;14.950;2022-08-19T08:12:22;25.80;99.90
11764;DHT22;5939;56.522;14.950;2022-08-19T08:14:52;25.80;99.90
11764;DHT22;5939;56.522;14.950;2022-08-19T08:17:20;25.90;99.90
11764;DHT22;5939;56.522;14.950;2022-08-19T08:19:46;26.00;99.90
11764;DHT22;5939;56.522;14.950;2022-08-19T08:22:16;26.00;99.90
11764;DHT22;5939;56.522;14.950;2022-08-19T08:25:08;26.10;99.90
11764;DHT22;5939;56.522;14.950;2022-08-19T08:27:39;26.20;99.90
11764;DHT22;5939;56.522;14.950;2022-08-19T08:30:11;26.20;99.90
11764;DHT22;5939;56.522;14.950;2022-08-19T08:32:38;26.30;99.90
11764;DHT22;5939;56.522;14.950;2022-08-19T08:35:10;26.30;99.90
11764;DHT22;5939;56.522;14.950;2022-08-19T08:37:37;26.40;99.90
11764;DHT22;5939;56.522;14.950;2022-08-19T08:40:34;26.40;99.90
11764;DHT22;5939;56.522;14.950;2022-08-19T08:43:18;26.50;99.90
11764;DHT22;5939;56.522;14.950;2022-08-19T08:46:13;26.50;99.90
11764;DHT22;5939;56.522;14.950;2022-08-19T08:52:04;26.60;99.90
11764;DHT22;5939;56.522;14.950;2022-08-19T08:54:43;26.60;99.90
11764;DHT22;5939;56.522;14.950;2022-08-19T08:57:18;26.70;99.90
11764;DHT22;5939;56.522;14.950;2022-08-19T08:59:47;26.70;99.90
11764;DHT22;5939;56.522;14.950;2022-08-19T09:02:16;26.80;99.90
11764;DHT22;5939;56.522;14.950;2022-08-19T09:04:42;26.80;99.90
11764;DHT22;5939;56.522;14.950;2022-08-19T09:07:34;26.90;99.90
11764;DHT22;5939;56.522;14.950;2022-08-19T09:15:44;27.10;99.90
11764;DHT22;5939;56.522;14.950;2022-08-19T09:18:11;27.10;99.90
11764;DHT22;5939;56.522;14.950;2022-08-19T09:20:37;27.20;99.90
11764;DHT22;5939;56.522;14.950;2022-08-19T09:23:03;27.30;99.90
11764;DHT22;5939;56.522;14.950;2022-08-19T09:25:29;27.30;99.90
11764;DHT22;5939;56.522;14.950;2022-08-19T09:27:57;27.30;99.90
11764;DHT22;5939;56.522;14.950;2022-08-19T09:30:26;27.40;99.90
11764;DHT22;5939;56.522;14.950;2022-08-19T09:32:53;27.50;99.90
11764;DHT22;5939;56.522;14.950;2022-08-19T09:35:24;27.50;99.90
11764;DHT22;5939;56.522;14.950;2022-08-19T09:37:50;27.60;99.90
11764;DHT22;5939;56.522;14.950;2022-08-19T09:40:17;27.70;99.90
11764;DHT22;5939;56.522;14.950;2022-08-19T09:42:44;27.70;99.90
11764;DHT22;5939;56.522;14.950;2022-08-19T09:45:12;27.80;99.90
11764;DHT22;5939;56.522;14.950;2022-08-19T09:47:38;27.90;99.90
11764;DHT22;5939;56.522;14.950;2022-08-19T09:50:05;27.90;99.90
11764;DHT22;5939;56.522;14.950;2022-08-19T09:52:32;28.00;99.90
11764;DHT22;5939;56.522;14.950;2022-08-19T09:54:58;28.10;99.90
11764;DHT22;5939;56.522;14.950;2022-08-19T09:57:24;28.20;99.90
11764;DHT22;5939;56.522;14.950;2022-08-19T09:59:49;28.20;99.90
11764;DHT22;5939;56.522;14.950;2022-08-19T10:02:15;28.20;99.90
11764;DHT22;5939;56.522;14.950;2022-08-19T10:04:41;28.30;99.90
11764;DHT22;5939;56.522;14.950;2022-08-19T10:07:25;28.30;99.90
11764;DHT22;5939;56.522;14.950;2022-08-19T10:09:50;28.30;99.90
11764;DHT22;5939;56.522;14.950;2022-08-19T10:12:16;28.30;99.90
11764;DHT22;5939;56.522;14.950;2022-08-19T10:14:42;28.30;99.90
11764;DHT22;5939;56.522;14.950;2022-08-19T10:17:07;28.40;99.90
11764;DHT22;5939;56.522;14.950;2022-08-19T10:19:33;28.40;99.90
11764;DHT22;5939;56.522;14.950;2022-08-19T10:22:07;28.50;99.90
11764;DHT22;5939;56.522;14.950;2022-08-19T10:24:34;28.50;99.90
11764;DHT22;5939;56.522;14.950;2022-08-19T10:27:00;28.60;99.90
11764;DHT22;5939;56.522;14.950;2022-08-19T10:29:29;28.60;99.90
11764;DHT22;5939;56.522;14.950;2022-08-19T10:31:55;28.70;99.90
11764;DHT22;5939;56.522;14.950;2022-08-19T10:34:23;28.80;99.90
11764;DHT22;5939;56.522;14.950;2022-08-19T10:36:48;28.80;99.90
11764;DHT22;5939;56.522;14.950;2022-08-19T10:39:14;28.90;99.90
11764;DHT22;5939;56.522;14.950;2022-08-19T10:41:40;29.00;99.90
11764;DHT22;5939;56.522;14.950;2022-08-19T10:44:11;29.00;99.90
11764;DHT22;5939;56.522;14.950;2022-08-19T10:46:40;29.10;99.90
11764;DHT22;5939;56.522;14.950;2022-08-19T10:49:08;29.20;99.90
11764;DHT22;5939;56.522;14.950;2022-08-19T10:51:35;29.30;99.90
11764;DHT22;5939;56.522;14.950;2022-08-19T10:54:20;29.30;99.90
11764;DHT22;5939;56.522;14.950;2022-08-19T10:56:46;29.30;99.90
11764;DHT22;5939;56.522;14.950;2022-08-19T10:59:27;29.40;99.90
11764;DHT22;5939;56.522;14.950;2022-08-19T11:01:54;29.50;99.90
11764;DHT22;5939;56.522;14.950;2022-08-19T11:04:23;29.50;99.90
11764;DHT22;5939;56.522;14.950;2022-08-19T11:06:49;29.50;99.90
11764;DHT22;5939;56.522;14.950;2022-08-19T11:09:17;29.50;99.90
11764;DHT22;5939;56.522;14.950;2022-08-19T11:11:43;29.50;99.90
11764;DHT22;5939;56.522;14.950;2022-08-19T11:14:14;29.60;99.90
11764;DHT22;5939;56.522;14.950;2022-08-19T11:16:42;29.50;99.90
11764;DHT22;5939;56.522;14.950;2022-08-19T11:19:10;29.50;99.90
11764;DHT22;5939;56.522;14.950;2022-08-19T11:21:41;29.60;99.90
11764;DHT22;5939;56.522;14.950;2022-08-19T11:24:10;29.50;99.90
11764;DHT22;5939;56.522;14.950;2022-08-19T11:26:37;29.50;99.90
11764;DHT22;5939;56.522;14.950;2022-08-19T11:29:04;29.50;99.90
11764;DHT22;5939;56.522;14.950;2022-08-19T11:31:33;29.50;99.90
11764;DHT22;5939;56.522;14.950;2022-08-19T11:34:01;29.50;99.90
11764;DHT22;5939;56.522;14.950;2022-08-19T11:36:27;29.50;99.90
11764;DHT22;5939;56.522;14.950;2022-08-19T11:38:54;29.40;99.90
11764;DHT22;5939;56.522;14.950;2022-08-19T11:41:22;29.40;99.90
11764;DHT22;5939;56.522;14.950;2022-08-19T11:43:52;29.40;99.90
11764;DHT22;5939;56.522;14.950;2022-08-19T11:46:20;29.40;99.90
11764;DHT22;5939;56.522;14.950;2022-08-19T11:48:46;29.40;99.90
11764;DHT22;5939;56.522;14.950;2022-08-19T11:51:14;29.40;99.90
11764;DHT22;5939;56.522;14.950;2022-08-19T11:53:40;29.40;99.90
11764;DHT22;5939;56.522;14.950;2022-08-19T11:56:07;29.30;99.90
11764;DHT22;5939;56.522;14.950;2022-08-19T11:58:33;29.30;99.90
11764;DHT22;5939;56.522;14.950;2022-08-19T12:00:59;29.30;99.90
11764;DHT22;5939;56.522;14.950;2022-08-19T12:03:26;29.40;99.90
11764;DHT22;5939;56.522;14.950;2022-08-19T12:05:52;29.30;99.90
11764;DHT22;5939;56.522;14.950;2022-08-19T12:08:18;29.30;99.90
11764;DHT22;5939;56.522;14.950;2022-08-19T12:10:44;29.30;99.90
11764;DHT22;5939;56.522;14.950;2022-08-19T12:13:12;29.30;99.90
11764;DHT22;5939;56.522;14.950;2022-08-19T12:15:41;29.30;99.90
11764;DHT22;5939;56.522;14.950;2022-08-19T12:18:08;29.30;99.90
11764;DHT22;5939;56.522;14.950;2022-08-19T12:20:40;29.30;99.90
11764;DHT22;5939;56.522;14.950;2022-08-19T12:23:07;29.30;99.90
11764;DHT22;5939;56.522;14.950;2022-08-19T12:25:34;29.30;99.90
11764;DHT22;5939;56.522;14.950;2022-08-19T12:28:00;29.30;99.90
11764;DHT22;5939;56.522;14.950;2022-08-19T12:30:26;29.30;99.90
11764;DHT22;5939;56.522;14.950;2022-08-19T12:32:52;29.30;99.90
11764;DHT22;5939;56.522;14.950;2022-08-19T12:35:18;29.30;99.90
11764;DHT22;5939;56.522;14.950;2022-08-19T12:37:46;29.40;99.90
11764;DHT22;5939;56.522;14.950;2022-08-19T12:40:13;29.30;99.90
11764;DHT22;5939;56.522;14.950;2022-08-19T12:42:40;29.40;99.90
11764;DHT22;5939;56.522;14.950;2022-08-19T12:45:10;29.30;99.90
11764;DHT22;5939;56.522;14.950;2022-08-19T12:47:36;29.40;99.90
11764;DHT22;5939;56.522;14.950;2022-08-19T12:50:03;29.40;99.90
11764;DHT22;5939;56.522;14.950;2022-08-19T12:52:29;29.30;99.90
11764;DHT22;5939;56.522;14.950;2022-08-19T12:54:56;29.30;99.90
11764;DHT22;5939;56.522;14.950;2022-08-19T12:57:24;29.30;99.90
11764;DHT22;5939;56.522;14.950;2022-08-19T12:59:53;29.40;99.90
11764;DHT22;5939;56.522;14.950;2022-08-19T13:02:20;29.30;99.90
11764;DHT22;5939;56.522;14.950;2022-08-19T13:04:46;29.40;99.90
11764;DHT22;5939;56.522;14.950;2022-08-19T13:07:12;29.30;99.90
11764;DHT22;5939;56.522;14.950;2022-08-19T13:09:37;29.30;99.90
11764;DHT22;5939;56.522;14.950;2022-08-19T13:12:06;29.40;99.90
11764;DHT22;5939;56.522;14.950;2022-08-19T13:14:35;29.30;99.90
11764;DHT22;5939;56.522;14.950;2022-08-19T13:17:01;29.30;99.90
11764;DHT22;5939;56.522;14.950;2022-08-19T13:19:27;29.30;99.90
11764;DHT22;5939;56.522;14.950;2022-08-19T13:21:53;29.30;99.90
11764;DHT22;5939;56.522;14.950;2022-08-19T13:24:21;29.30;99.90
11764;DHT22;5939;56.522;14.950;2022-08-19T13:26:46;29.30;99.90
11764;DHT22;5939;56.522;14.950;2022-08-19T13:29:13;29.20;99.90
11764;DHT22;5939;56.522;14.950;2022-08-19T13:31:58;29.20;99.90
11764;DHT22;5939;56.522;14.950;2022-08-19T13:34:42;29.20;99.90
11764;DHT22;5939;56.522;14.950;2022-08-19T13:37:08;29.20;99.90
11764;DHT22;5939;56.522;14.950;2022-08-19T13:39:34;29.20;99.90
11764;DHT22;5939;56.522;14.950;2022-08-19T13:42:01;29.20;99.90
11764;DHT22;5939;56.522;14.950;2022-08-19T13:44:28;29.10;99.90
11764;DHT22;5939;56.522;14.950;2022-08-19T13:47:04;29.10;99.90
11764;DHT22;5939;56.522;14.950;2022-08-19T13:49:35;29.00;99.90
11764;DHT22;5939;56.522;14.950;2022-08-19T13:52:02;29.00;99.90
11764;DHT22;5939;56.522;14.950;2022-08-19T13:54:28;28.90;99.90
11764;DHT22;5939;56.522;14.950;2022-08-19T13:56:54;28.90;99.90
11764;DHT22;5939;56.522;14.950;2022-08-19T13:59:20;28.90;99.90
11764;DHT22;5939;56.522;14.950;2022-08-19T14:01:45;28.80;99.90
11764;DHT22;5939;56.522;14.950;2022-08-19T14:04:11;28.80;99.90
11764;DHT22;5939;56.522;14.950;2022-08-19T14:06:36;28.70;99.90
11764;DHT22;5939;56.522;14.950;2022-08-19T14:09:03;28.70;99.90
11764;DHT22;5939;56.522;14.950;2022-08-19T14:11:30;28.60;99.90
11764;DHT22;5939;56.522;14.950;2022-08-19T14:13:55;28.60;99.90
11764;DHT22;5939;56.522;14.950;2022-08-19T14:16:21;28.60;99.90
11764;DHT22;5939;56.522;14.950;2022-08-19T14:18:47;28.50;99.90
11764;DHT22;5939;56.522;14.950;2022-08-19T14:21:19;28.50;99.90
11764;DHT22;5939;56.522;14.950;2022-08-19T14:23:46;28.40;99.90
11764;DHT22;5939;56.522;14.950;2022-08-19T14:26:14;28.40;99.90
11764;DHT22;5939;56.522;14.950;2022-08-19T14:28:41;28.30;99.90
11764;DHT22;5939;56.522;14.950;2022-08-19T14:31:09;28.30;99.90
11764;DHT22;5939;56.522;14.950;2022-08-19T14:33:34;28.30;99.90
11764;DHT22;5939;56.522;14.950;2022-08-19T14:36:00;28.20;99.90
11764;DHT22;5939;56.522;14.950;2022-08-19T14:38:26;28.20;99.90
11764;DHT22;5939;56.522;14.950;2022-08-19T14:40:52;28.10;99.90
11764;DHT22;5939;56.522;14.950;2022-08-19T14:43:18;28.10;99.90
11764;DHT22;5939;56.522;14.950;2022-08-19T14:45:43;28.10;99.90
11764;DHT22;5939;56.522;14.950;2022-08-19T14:48:09;28.10;99.90
11764;DHT22;5939;56.522;14.950;2022-08-19T14:50:36;28.00;99.90
11764;DHT22;5939;56.522;14.950;2022-08-19T14:53:07;28.00;99.90
11764;DHT22;5939;56.522;14.950;2022-08-19T14:55:34;27.90;99.90
11764;DHT22;5939;56.522;14.950;2022-08-19T14:58:00;27.90;99.90
11764;DHT22;5939;56.522;14.950;2022-08-19T15:00:26;27.90;99.90
11764;DHT22;5939;56.522;14.950;2022-08-19T15:02:52;27.90;99.90
11764;DHT22;5939;56.522;14.950;2022-08-19T15:05:20;27.80;99.90
11764;DHT22;5939;56.522;14.950;2022-08-19T15:07:46;27.80;99.90
11764;DHT22;5939;56.522;14.950;2022-08-19T15:10:13;27.80;99.90
11764;DHT22;5939;56.522;14.950;2022-08-19T15:12:39;27.80;99.90
11764;DHT22;5939;56.522;14.950;2022-08-19T15:15:07;27.80;99.90
11764;DHT22;5939;56.522;14.950;2022-08-19T15:17:34;27.70;99.90
11764;DHT22;5939;56.522;14.950;2022-08-19T15:20:03;27.70;99.90
11764;DHT22;5939;56.522;14.950;2022-08-19T15:22:30;27.70;99.90
11764;DHT22;5939;56.522;14.950;2022-08-19T15:24:55;27.70;99.90
11764;DHT22;5939;56.522;14.950;2022-08-19T15:27:21;27.70;99.90
11764;DHT22;5939;56.522;14.950;2022-08-19T15:29:47;27.70;99.90
11764;DHT22;5939;56.522;14.950;2022-08-19T15:32:12;27.70;99.90
11764;DHT22;5939;56.522;14.950;2022-08-19T15:34:38;27.60;99.90
11764;DHT22;5939;56.522;14.950;2022-08-19T15:37:04;27.60;99.90
11764;DHT22;5939;56.522;14.950;2022-08-19T15:39:31;27.60;99.90
11764;DHT22;5939;56.522;14.950;2022-08-19T15:41:57;27.50;99.90
11764;DHT22;5939;56.522;14.950;2022-08-19T15:44:25;27.50;99.90
11764;DHT22;5939;56.522;14.950;2022-08-19T15:46:52;27.50;99.90